sensor_id;sensor_type;location;lat;lon;timestamp;P1;durP1;ratioP1;P2;durP2;ratioP2
8232;SDS011;4157;48.074;9.952;2024-01-11T00:01:08;55.93;;;22.37;;
8232;SDS011;4157;48.074;9.952;2024-01-11T00:03:36;61.30;;;24.13;;
8232;SDS011;4157;48.074;9.952;2024-01-11T00:06:04;55.93;;;24.07;;
8232;SDS011;4157;48.074;9.952;2024-01-11T00:08:31;60.70;;;23.73;;
8232;SDS011;4157;48.074;9.952;2024-01-11T00:10:59;58.43;;;21.93;;
8232;SDS011;4157;48.074;9.952;2024-01-11T00:13:28;52.37;;;22.30;;
8232;SDS011;4157;48.074;9.952;2024-01-11T00:15:56;64.30;;;24.77;;
8232;SDS011;4157;48.074;9.952;2024-01-11T00:18:23;63.70;;;23.37;;
8232;SDS011;4157;48.074;9.952;2024-01-11T00:20:51;57.50;;;22.43;;
8232;SDS011;4157;48.074;9.952;2024-01-11T00:23:19;58.57;;;22.47;;
8232;SDS011;4157;48.074;9.952;2024-01-11T00:25:47;65.30;;;25.70;;
8232;SDS011;4157;48.074;9.952;2024-01-11T00:28:15;65.53;;;25.63;;
8232;SDS011;4157;48.074;9.952;2024-01-11T00:30:44;54.43;;;21.50;;
8232;SDS011;4157;48.074;9.952;2024-01-11T00:33:10;54.13;;;24.13;;
8232;SDS011;4157;48.074;9.952;2024-01-11T00:35:38;59.40;;;22.80;;
8232;SDS011;4157;48.074;9.952;2024-01-11T00:38:06;57.47;;;23.57;;
8232;SDS011;4157;48.074;9.952;2024-01-11T00:40:33;51.73;;;21.83;;
8232;SDS011;4157;48.074;9.952;2024-01-11T00:43:01;59.23;;;22.93;;
8232;SDS011;4157;48.074;9.952;2024-01-11T00:45:29;58.07;;;23.10;;
8232;SDS011;4157;48.074;9.952;2024-01-11T00:47:58;64.15;;;24.65;;
8232;SDS011;4157;48.074;9.952;2024-01-11T00:50:25;59.80;;;22.53;;
8232;SDS011;4157;48.074;9.952;2024-01-11T00:52:53;60.70;;;23.37;;
8232;SDS011;4157;48.074;9.952;2024-01-11T00:55:21;54.90;;;22.95;;
8232;SDS011;4157;48.074;9.952;2024-01-11T00:57:50;55.17;;;22.52;;
8232;SDS011;4157;48.074;9.952;2024-01-11T01:00:17;51.58;;;22.27;;
8232;SDS011;4157;48.074;9.952;2024-01-11T01:02:45;58.55;;;22.98;;
8232;SDS011;4157;48.074;9.952;2024-01-11T01:05:14;59.92;;;22.88;;
8232;SDS011;4157;48.074;9.952;2024-01-11T01:07:42;61.42;;;24.33;;
8232;SDS011;4157;48.074;9.952;2024-01-11T01:10:11;50.65;;;21.95;;
8232;SDS011;4157;48.074;9.952;2024-01-11T01:12:39;62.92;;;23.83;;
8232;SDS011;4157;48.074;9.952;2024-01-11T01:15:07;59.87;;;22.63;;
8232;SDS011;4157;48.074;9.952;2024-01-11T01:17:35;47.47;;;21.40;;
8232;SDS011;4157;48.074;9.952;2024-01-11T01:20:02;61.53;;;24.00;;
8232;SDS011;4157;48.074;9.952;2024-01-11T01:22:32;54.13;;;20.80;;
8232;SDS011;4157;48.074;9.952;2024-01-11T01:24:59;57.22;;;21.50;;
8232;SDS011;4157;48.074;9.952;2024-01-11T01:27:27;47.75;;;18.45;;
8232;SDS011;4157;48.074;9.952;2024-01-11T01:29:55;46.83;;;18.67;;
8232;SDS011;4157;48.074;9.952;2024-01-11T01:32:22;42.85;;;18.45;;
8232;SDS011;4157;48.074;9.952;2024-01-11T01:34:50;51.73;;;18.50;;
8232;SDS011;4157;48.074;9.952;2024-01-11T01:37:18;55.50;;;21.40;;
8232;SDS011;4157;48.074;9.952;2024-01-11T01:39:47;55.67;;;21.25;;
8232;SDS011;4157;48.074;9.952;2024-01-11T01:42:14;44.75;;;18.70;;
8232;SDS011;4157;48.074;9.952;2024-01-11T01:44:42;58.30;;;21.17;;
8232;SDS011;4157;48.074;9.952;2024-01-11T01:47:10;49.77;;;21.33;;
8232;SDS011;4157;48.074;9.952;2024-01-11T01:49:38;44.67;;;20.53;;
8232;SDS011;4157;48.074;9.952;2024-01-11T01:52:06;43.95;;;17.98;;
8232;SDS011;4157;48.074;9.952;2024-01-11T01:54:34;48.83;;;17.93;;
8232;SDS011;4157;48.074;9.952;2024-01-11T01:57:04;44.57;;;18.63;;
8232;SDS011;4157;48.074;9.952;2024-01-11T01:59:32;41.50;;;17.48;;
8232;SDS011;4157;48.074;9.952;2024-01-11T02:01:59;46.37;;;16.43;;
8232;SDS011;4157;48.074;9.952;2024-01-11T02:04:27;41.63;;;17.83;;
8232;SDS011;4157;48.074;9.952;2024-01-11T02:06:55;40.67;;;17.73;;
8232;SDS011;4157;48.074;9.952;2024-01-11T02:09:23;38.75;;;16.20;;
8232;SDS011;4157;48.074;9.952;2024-01-11T02:11:51;43.67;;;18.23;;
8232;SDS011;4157;48.074;9.952;2024-01-11T02:14:21;39.50;;;17.02;;
8232;SDS011;4157;48.074;9.952;2024-01-11T02:16:48;37.47;;;16.43;;
8232;SDS011;4157;48.074;9.952;2024-01-11T02:19:16;40.40;;;18.03;;
8232;SDS011;4157;48.074;9.952;2024-01-11T02:21:46;39.63;;;17.53;;
8232;SDS011;4157;48.074;9.952;2024-01-11T02:24:15;38.50;;;15.77;;
8232;SDS011;4157;48.074;9.952;2024-01-11T02:26:57;45.90;;;18.63;;
8232;SDS011;4157;48.074;9.952;2024-01-11T02:29:25;43.47;;;16.55;;
8232;SDS011;4157;48.074;9.952;2024-01-11T02:31:53;43.23;;;17.37;;
8232;SDS011;4157;48.074;9.952;2024-01-11T02:34:21;51.93;;;19.30;;
8232;SDS011;4157;48.074;9.952;2024-01-11T02:36:49;41.50;;;17.70;;
8232;SDS011;4157;48.074;9.952;2024-01-11T02:39:19;42.67;;;18.00;;
8232;SDS011;4157;48.074;9.952;2024-01-11T02:41:47;45.53;;;19.03;;
8232;SDS011;4157;48.074;9.952;2024-01-11T02:44:15;52.27;;;18.63;;
8232;SDS011;4157;48.074;9.952;2024-01-11T02:46:43;44.72;;;18.00;;
8232;SDS011;4157;48.074;9.952;2024-01-11T02:49:11;46.10;;;19.00;;
8232;SDS011;4157;48.074;9.952;2024-01-11T02:51:38;47.83;;;18.93;;
8232;SDS011;4157;48.074;9.952;2024-01-11T02:54:06;39.73;;;16.60;;
8232;SDS011;4157;48.074;9.952;2024-01-11T02:56:35;44.17;;;18.15;;
8232;SDS011;4157;48.074;9.952;2024-01-11T02:59:03;49.15;;;18.42;;
8232;SDS011;4157;48.074;9.952;2024-01-11T03:01:30;43.05;;;17.50;;
8232;SDS011;4157;48.074;9.952;2024-01-11T03:03:59;47.27;;;18.50;;
8232;SDS011;4157;48.074;9.952;2024-01-11T03:06:27;48.23;;;17.43;;
8232;SDS011;4157;48.074;9.952;2024-01-11T03:08:55;43.83;;;17.57;;
8232;SDS011;4157;48.074;9.952;2024-01-11T03:11:22;48.13;;;17.63;;
8232;SDS011;4157;48.074;9.952;2024-01-11T03:13:51;39.80;;;16.63;;
8232;SDS011;4157;48.074;9.952;2024-01-11T03:16:19;41.38;;;16.00;;
8232;SDS011;4157;48.074;9.952;2024-01-11T03:18:47;40.77;;;16.87;;
8232;SDS011;4157;48.074;9.952;2024-01-11T03:21:14;40.63;;;16.13;;
8232;SDS011;4157;48.074;9.952;2024-01-11T03:23:42;34.83;;;17.10;;
8232;SDS011;4157;48.074;9.952;2024-01-11T03:26:13;44.20;;;16.87;;
8232;SDS011;4157;48.074;9.952;2024-01-11T03:28:41;49.87;;;17.83;;
8232;SDS011;4157;48.074;9.952;2024-01-11T03:31:10;38.87;;;15.50;;
8232;SDS011;4157;48.074;9.952;2024-01-11T03:33:37;44.83;;;19.90;;
8232;SDS011;4157;48.074;9.952;2024-01-11T03:36:06;44.30;;;17.87;;
8232;SDS011;4157;48.074;9.952;2024-01-11T03:38:34;45.78;;;17.48;;
8232;SDS011;4157;48.074;9.952;2024-01-11T03:41:02;43.63;;;18.53;;
8232;SDS011;4157;48.074;9.952;2024-01-11T03:43:29;42.33;;;18.47;;
8232;SDS011;4157;48.074;9.952;2024-01-11T03:45:57;42.73;;;17.80;;
8232;SDS011;4157;48.074;9.952;2024-01-11T03:48:26;41.80;;;16.27;;
8232;SDS011;4157;48.074;9.952;2024-01-11T03:50:54;42.73;;;17.07;;
8232;SDS011;4157;48.074;9.952;2024-01-11T03:53:21;42.53;;;17.17;;
8232;SDS011;4157;48.074;9.952;2024-01-11T03:55:49;46.27;;;18.27;;
8232;SDS011;4157;48.074;9.952;2024-01-11T03:58:17;47.43;;;17.80;;
8232;SDS011;4157;48.074;9.952;2024-01-11T04:00:45;42.20;;;17.30;;
8232;SDS011;4157;48.074;9.952;2024-01-11T04:03:12;35.23;;;14.97;;
8232;SDS011;4157;48.074;9.952;2024-01-11T04:05:41;36.37;;;16.07;;
8232;SDS011;4157;48.074;9.952;2024-01-11T04:08:09;34.80;;;16.47;;
8232;SDS011;4157;48.074;9.952;2024-01-11T04:10:37;43.43;;;17.13;;
8232;SDS011;4157;48.074;9.952;2024-01-11T04:13:06;46.73;;;17.87;;
8232;SDS011;4157;48.074;9.952;2024-01-11T04:15:34;42.50;;;16.07;;
8232;SDS011;4157;48.074;9.952;2024-01-11T04:18:01;45.43;;;16.67;;
8232;SDS011;4157;48.074;9.952;2024-01-11T04:20:29;42.80;;;17.07;;
8232;SDS011;4157;48.074;9.952;2024-01-11T04:22:58;40.57;;;17.77;;
8232;SDS011;4157;48.074;9.952;2024-01-11T04:25:26;41.40;;;18.33;;
8232;SDS011;4157;48.074;9.952;2024-01-11T04:27:53;49.43;;;17.37;;
8232;SDS011;4157;48.074;9.952;2024-01-11T04:30:21;40.87;;;16.87;;
8232;SDS011;4157;48.074;9.952;2024-01-11T04:32:49;41.10;;;17.50;;
8232;SDS011;4157;48.074;9.952;2024-01-11T04:35:18;42.77;;;16.60;;
8232;SDS011;4157;48.074;9.952;2024-01-11T04:37:45;39.27;;;17.20;;
8232;SDS011;4157;48.074;9.952;2024-01-11T04:40:14;41.13;;;16.17;;
8232;SDS011;4157;48.074;9.952;2024-01-11T04:42:42;40.67;;;16.93;;
8232;SDS011;4157;48.074;9.952;2024-01-11T04:45:10;33.33;;;15.83;;
8232;SDS011;4157;48.074;9.952;2024-01-11T04:47:37;39.57;;;16.73;;
8232;SDS011;4157;48.074;9.952;2024-01-11T04:50:06;35.43;;;15.27;;
8232;SDS011;4157;48.074;9.952;2024-01-11T04:52:34;34.50;;;16.30;;
8232;SDS011;4157;48.074;9.952;2024-01-11T04:55:02;42.77;;;16.90;;
8232;SDS011;4157;48.074;9.952;2024-01-11T04:57:31;42.50;;;15.73;;
8232;SDS011;4157;48.074;9.952;2024-01-11T04:59:59;38.93;;;15.23;;
8232;SDS011;4157;48.074;9.952;2024-01-11T05:02:26;36.93;;;15.87;;
8232;SDS011;4157;48.074;9.952;2024-01-11T05:04:54;40.83;;;15.97;;
8232;SDS011;4157;48.074;9.952;2024-01-11T05:07:22;47.93;;;17.47;;
8232;SDS011;4157;48.074;9.952;2024-01-11T05:09:49;37.37;;;14.83;;
8232;SDS011;4157;48.074;9.952;2024-01-11T05:12:17;41.67;;;16.13;;
8232;SDS011;4157;48.074;9.952;2024-01-11T05:14:46;33.87;;;15.13;;
8232;SDS011;4157;48.074;9.952;2024-01-11T05:17:14;49.47;;;17.63;;
8232;SDS011;4157;48.074;9.952;2024-01-11T05:19:41;45.47;;;16.03;;
8232;SDS011;4157;48.074;9.952;2024-01-11T05:22:09;47.73;;;17.57;;
8232;SDS011;4157;48.074;9.952;2024-01-11T05:24:37;42.80;;;17.10;;
8232;SDS011;4157;48.074;9.952;2024-01-11T05:27:04;44.37;;;17.37;;
8232;SDS011;4157;48.074;9.952;2024-01-11T05:29:32;35.87;;;15.63;;
8232;SDS011;4157;48.074;9.952;2024-01-11T05:32:01;37.87;;;14.70;;
8232;SDS011;4157;48.074;9.952;2024-01-11T05:34:29;40.00;;;16.23;;
8232;SDS011;4157;48.074;9.952;2024-01-11T05:36:56;44.90;;;15.87;;
8232;SDS011;4157;48.074;9.952;2024-01-11T05:39:24;40.70;;;16.73;;
8232;SDS011;4157;48.074;9.952;2024-01-11T05:41:52;48.50;;;17.10;;
8232;SDS011;4157;48.074;9.952;2024-01-11T05:44:19;41.63;;;17.77;;
8232;SDS011;4157;48.074;9.952;2024-01-11T05:46:47;40.10;;;14.97;;
8232;SDS011;4157;48.074;9.952;2024-01-11T05:49:16;41.93;;;16.63;;
8232;SDS011;4157;48.074;9.952;2024-01-11T05:51:44;44.00;;;16.43;;
8232;SDS011;4157;48.074;9.952;2024-01-11T05:54:11;42.20;;;16.10;;
8232;SDS011;4157;48.074;9.952;2024-01-11T05:56:39;36.92;;;15.18;;
8232;SDS011;4157;48.074;9.952;2024-01-11T05:59:07;38.50;;;14.67;;
8232;SDS011;4157;48.074;9.952;2024-01-11T06:01:39;36.13;;;15.43;;
8232;SDS011;4157;48.074;9.952;2024-01-11T06:04:07;36.37;;;15.13;;
8232;SDS011;4157;48.074;9.952;2024-01-11T06:06:36;44.03;;;15.65;;
8232;SDS011;4157;48.074;9.952;2024-01-11T06:09:04;41.17;;;16.15;;
8232;SDS011;4157;48.074;9.952;2024-01-11T06:11:32;43.90;;;16.17;;
8232;SDS011;4157;48.074;9.952;2024-01-11T06:13:59;47.73;;;18.60;;
8232;SDS011;4157;48.074;9.952;2024-01-11T06:16:28;51.80;;;16.63;;
8232;SDS011;4157;48.074;9.952;2024-01-11T06:18:56;44.70;;;16.67;;
8232;SDS011;4157;48.074;9.952;2024-01-11T06:21:24;42.23;;;16.27;;
8232;SDS011;4157;48.074;9.952;2024-01-11T06:23:53;49.03;;;17.37;;
8232;SDS011;4157;48.074;9.952;2024-01-11T06:26:20;37.47;;;15.30;;
8232;SDS011;4157;48.074;9.952;2024-01-11T06:28:48;40.20;;;15.57;;
8232;SDS011;4157;48.074;9.952;2024-01-11T06:31:16;51.87;;;16.87;;
8232;SDS011;4157;48.074;9.952;2024-01-11T06:33:44;42.55;;;15.77;;
8232;SDS011;4157;48.074;9.952;2024-01-11T06:36:12;41.83;;;19.03;;
8232;SDS011;4157;48.074;9.952;2024-01-11T06:38:39;43.55;;;18.40;;
8232;SDS011;4157;48.074;9.952;2024-01-11T06:41:08;46.97;;;17.47;;
8232;SDS011;4157;48.074;9.952;2024-01-11T06:43:36;51.83;;;17.13;;
8232;SDS011;4157;48.074;9.952;2024-01-11T06:46:04;45.63;;;17.95;;
8232;SDS011;4157;48.074;9.952;2024-01-11T06:48:31;54.63;;;20.63;;
8232;SDS011;4157;48.074;9.952;2024-01-11T06:50:59;43.87;;;16.60;;
8232;SDS011;4157;48.074;9.952;2024-01-11T06:53:27;40.17;;;14.67;;
8232;SDS011;4157;48.074;9.952;2024-01-11T06:55:54;34.63;;;13.60;;
8232;SDS011;4157;48.074;9.952;2024-01-11T06:58:23;31.67;;;12.77;;
8232;SDS011;4157;48.074;9.952;2024-01-11T07:00:51;36.85;;;13.23;;
8232;SDS011;4157;48.074;9.952;2024-01-11T07:03:19;35.20;;;13.67;;
8232;SDS011;4157;48.074;9.952;2024-01-11T07:05:47;39.27;;;15.53;;
8232;SDS011;4157;48.074;9.952;2024-01-11T07:08:14;39.27;;;15.57;;
8232;SDS011;4157;48.074;9.952;2024-01-11T07:10:42;38.47;;;15.20;;
8232;SDS011;4157;48.074;9.952;2024-01-11T07:13:10;36.28;;;15.48;;
8232;SDS011;4157;48.074;9.952;2024-01-11T07:15:42;42.55;;;16.50;;
8232;SDS011;4157;48.074;9.952;2024-01-11T07:18:09;37.63;;;15.40;;
8232;SDS011;4157;48.074;9.952;2024-01-11T07:20:37;35.33;;;15.13;;
8232;SDS011;4157;48.074;9.952;2024-01-11T07:23:05;39.97;;;16.50;;
8232;SDS011;4157;48.074;9.952;2024-01-11T07:25:32;39.97;;;14.77;;
8232;SDS011;4157;48.074;9.952;2024-01-11T07:28:00;36.60;;;12.90;;
8232;SDS011;4157;48.074;9.952;2024-01-11T07:30:28;38.87;;;15.27;;
8232;SDS011;4157;48.074;9.952;2024-01-11T07:32:57;42.15;;;15.70;;
8232;SDS011;4157;48.074;9.952;2024-01-11T07:35:25;38.00;;;13.65;;
8232;SDS011;4157;48.074;9.952;2024-01-11T07:37:52;44.93;;;16.20;;
8232;SDS011;4157;48.074;9.952;2024-01-11T07:40:20;42.60;;;14.82;;
8232;SDS011;4157;48.074;9.952;2024-01-11T07:42:48;38.47;;;14.73;;
8232;SDS011;4157;48.074;9.952;2024-01-11T07:45:15;41.17;;;16.30;;
8232;SDS011;4157;48.074;9.952;2024-01-11T07:47:44;35.70;;;13.63;;
8232;SDS011;4157;48.074;9.952;2024-01-11T07:50:14;38.53;;;13.67;;
8232;SDS011;4157;48.074;9.952;2024-01-11T07:52:41;35.03;;;14.97;;
8232;SDS011;4157;48.074;9.952;2024-01-11T07:55:09;33.50;;;13.88;;
8232;SDS011;4157;48.074;9.952;2024-01-11T07:57:38;29.83;;;12.53;;
8232;SDS011;4157;48.074;9.952;2024-01-11T08:00:06;32.20;;;12.25;;
8232;SDS011;4157;48.074;9.952;2024-01-11T08:02:40;26.90;;;11.35;;
8232;SDS011;4157;48.074;9.952;2024-01-11T08:05:08;34.45;;;12.93;;
8232;SDS011;4157;48.074;9.952;2024-01-11T08:07:37;27.30;;;11.13;;
8232;SDS011;4157;48.074;9.952;2024-01-11T08:10:05;31.43;;;11.90;;
8232;SDS011;4157;48.074;9.952;2024-01-11T08:12:33;39.20;;;13.65;;
8232;SDS011;4157;48.074;9.952;2024-01-11T08:15:01;35.20;;;13.53;;
8232;SDS011;4157;48.074;9.952;2024-01-11T08:17:29;28.55;;;11.77;;
8232;SDS011;4157;48.074;9.952;2024-01-11T08:19:57;32.97;;;11.70;;
8232;SDS011;4157;48.074;9.952;2024-01-11T08:22:25;32.33;;;13.18;;
8232;SDS011;4157;48.074;9.952;2024-01-11T08:24:55;30.45;;;13.02;;
8232;SDS011;4157;48.074;9.952;2024-01-11T08:27:23;37.25;;;13.05;;
8232;SDS011;4157;48.074;9.952;2024-01-11T08:29:50;33.88;;;13.75;;
8232;SDS011;4157;48.074;9.952;2024-01-11T08:32:18;37.80;;;14.48;;
8232;SDS011;4157;48.074;9.952;2024-01-11T08:34:46;37.95;;;12.30;;
8232;SDS011;4157;48.074;9.952;2024-01-11T08:37:13;36.17;;;13.60;;
8232;SDS011;4157;48.074;9.952;2024-01-11T08:39:41;40.73;;;13.93;;
8232;SDS011;4157;48.074;9.952;2024-01-11T08:42:10;37.15;;;14.43;;
8232;SDS011;4157;48.074;9.952;2024-01-11T08:44:40;33.85;;;13.27;;
8232;SDS011;4157;48.074;9.952;2024-01-11T08:47:08;28.80;;;12.57;;
8232;SDS011;4157;48.074;9.952;2024-01-11T08:49:36;44.00;;;14.30;;
8232;SDS011;4157;48.074;9.952;2024-01-11T08:52:04;34.05;;;14.25;;
8232;SDS011;4157;48.074;9.952;2024-01-11T08:54:33;33.53;;;13.50;;
8232;SDS011;4157;48.074;9.952;2024-01-11T08:57:00;39.45;;;14.82;;
8232;SDS011;4157;48.074;9.952;2024-01-11T08:59:30;37.92;;;12.98;;
8232;SDS011;4157;48.074;9.952;2024-01-11T09:01:58;40.97;;;14.55;;
8232;SDS011;4157;48.074;9.952;2024-01-11T09:04:26;48.08;;;13.38;;
8232;SDS011;4157;48.074;9.952;2024-01-11T09:06:55;36.95;;;14.70;;
8232;SDS011;4157;48.074;9.952;2024-01-11T09:09:23;39.80;;;15.05;;
8232;SDS011;4157;48.074;9.952;2024-01-11T09:11:50;35.22;;;14.10;;
8232;SDS011;4157;48.074;9.952;2024-01-11T09:14:18;40.20;;;14.88;;
8232;SDS011;4157;48.074;9.952;2024-01-11T09:16:47;37.35;;;14.30;;
8232;SDS011;4157;48.074;9.952;2024-01-11T09:19:15;42.30;;;16.00;;
8232;SDS011;4157;48.074;9.952;2024-01-11T09:21:43;42.17;;;15.50;;
8232;SDS011;4157;48.074;9.952;2024-01-11T09:24:11;42.53;;;14.55;;
8232;SDS011;4157;48.074;9.952;2024-01-11T09:26:39;48.13;;;15.20;;
8232;SDS011;4157;48.074;9.952;2024-01-11T09:29:06;29.42;;;13.10;;
8232;SDS011;4157;48.074;9.952;2024-01-11T09:31:34;43.97;;;16.48;;
8232;SDS011;4157;48.074;9.952;2024-01-11T09:34:03;47.33;;;17.27;;
8232;SDS011;4157;48.074;9.952;2024-01-11T09:36:31;46.55;;;15.82;;
8232;SDS011;4157;48.074;9.952;2024-01-11T09:38:58;37.45;;;14.60;;
8232;SDS011;4157;48.074;9.952;2024-01-11T09:41:26;44.85;;;16.80;;
8232;SDS011;4157;48.074;9.952;2024-01-11T09:43:54;44.15;;;15.32;;
8232;SDS011;4157;48.074;9.952;2024-01-11T09:46:23;49.60;;;16.90;;
8232;SDS011;4157;48.074;9.952;2024-01-11T09:48:51;49.45;;;18.02;;
8232;SDS011;4157;48.074;9.952;2024-01-11T09:51:20;49.33;;;17.65;;
8232;SDS011;4157;48.074;9.952;2024-01-11T09:53:48;52.40;;;17.35;;
8232;SDS011;4157;48.074;9.952;2024-01-11T09:56:17;53.28;;;17.77;;
8232;SDS011;4157;48.074;9.952;2024-01-11T09:58:46;61.40;;;36.55;;
8232;SDS011;4157;48.074;9.952;2024-01-11T10:01:16;63.97;;;20.27;;
8232;SDS011;4157;48.074;9.952;2024-01-11T10:03:43;48.28;;;17.05;;
8232;SDS011;4157;48.074;9.952;2024-01-11T10:06:12;50.45;;;19.25;;
8232;SDS011;4157;48.074;9.952;2024-01-11T10:08:43;61.05;;;20.60;;
8232;SDS011;4157;48.074;9.952;2024-01-11T10:11:11;57.60;;;19.58;;
8232;SDS011;4157;48.074;9.952;2024-01-11T10:13:39;58.22;;;21.67;;
8232;SDS011;4157;48.074;9.952;2024-01-11T10:16:08;60.33;;;19.17;;
8232;SDS011;4157;48.074;9.952;2024-01-11T10:18:36;63.60;;;21.52;;
8232;SDS011;4157;48.074;9.952;2024-01-11T10:21:04;68.47;;;22.92;;
8232;SDS011;4157;48.074;9.952;2024-01-11T10:23:32;68.80;;;20.58;;
8232;SDS011;4157;48.074;9.952;2024-01-11T10:26:02;65.55;;;21.60;;
8232;SDS011;4157;48.074;9.952;2024-01-11T10:28:29;61.65;;;20.80;;
8232;SDS011;4157;48.074;9.952;2024-01-11T10:30:58;60.33;;;21.23;;
8232;SDS011;4157;48.074;9.952;2024-01-11T10:33:25;61.88;;;22.27;;
8232;SDS011;4157;48.074;9.952;2024-01-11T10:35:53;71.22;;;24.42;;
8232;SDS011;4157;48.074;9.952;2024-01-11T10:38:21;62.85;;;23.02;;
8232;SDS011;4157;48.074;9.952;2024-01-11T10:40:49;67.72;;;21.60;;
8232;SDS011;4157;48.074;9.952;2024-01-11T10:43:19;52.00;;;18.88;;
8232;SDS011;4157;48.074;9.952;2024-01-11T10:45:48;59.47;;;19.98;;
8232;SDS011;4157;48.074;9.952;2024-01-11T10:48:20;64.70;;;19.80;;
8232;SDS011;4157;48.074;9.952;2024-01-11T10:50:49;59.25;;;20.17;;
8232;SDS011;4157;48.074;9.952;2024-01-11T10:53:25;58.45;;;20.95;;
8232;SDS011;4157;48.074;9.952;2024-01-11T10:55:54;59.67;;;20.58;;
8232;SDS011;4157;48.074;9.952;2024-01-11T10:58:23;62.22;;;21.73;;
8232;SDS011;4157;48.074;9.952;2024-01-11T11:00:52;63.42;;;21.52;;
8232;SDS011;4157;48.074;9.952;2024-01-11T11:03:21;68.63;;;21.42;;
8232;SDS011;4157;48.074;9.952;2024-01-11T11:05:50;71.75;;;23.25;;
8232;SDS011;4157;48.074;9.952;2024-01-11T11:08:21;70.38;;;22.20;;
8232;SDS011;4157;48.074;9.952;2024-01-11T11:10:51;68.35;;;23.30;;
8232;SDS011;4157;48.074;9.952;2024-01-11T11:13:23;63.45;;;21.77;;
8232;SDS011;4157;48.074;9.952;2024-01-11T11:15:51;64.53;;;23.85;;
8232;SDS011;4157;48.074;9.952;2024-01-11T11:18:19;60.30;;;21.05;;
8232;SDS011;4157;48.074;9.952;2024-01-11T11:20:47;65.05;;;22.52;;
8232;SDS011;4157;48.074;9.952;2024-01-11T11:23:16;62.42;;;24.75;;
8232;SDS011;4157;48.074;9.952;2024-01-11T11:25:44;68.05;;;23.58;;
8232;SDS011;4157;48.074;9.952;2024-01-11T11:28:12;71.22;;;24.08;;
8232;SDS011;4157;48.074;9.952;2024-01-11T11:30:42;59.45;;;21.65;;
8232;SDS011;4157;48.074;9.952;2024-01-11T11:33:11;66.47;;;23.85;;
8232;SDS011;4157;48.074;9.952;2024-01-11T11:35:43;64.93;;;21.85;;
8232;SDS011;4157;48.074;9.952;2024-01-11T11:38:16;62.45;;;21.90;;
8232;SDS011;4157;48.074;9.952;2024-01-11T11:40:46;51.40;;;18.85;;
8232;SDS011;4157;48.074;9.952;2024-01-11T11:43:15;54.28;;;18.63;;
8232;SDS011;4157;48.074;9.952;2024-01-11T11:45:44;49.85;;;17.98;;
8232;SDS011;4157;48.074;9.952;2024-01-11T11:51:00;64.43;;;20.70;;
8232;SDS011;4157;48.074;9.952;2024-01-11T11:53:30;53.08;;;19.50;;
8232;SDS011;4157;48.074;9.952;2024-01-11T11:56:00;62.40;;;21.73;;
8232;SDS011;4157;48.074;9.952;2024-01-11T11:58:28;54.88;;;20.90;;
8232;SDS011;4157;48.074;9.952;2024-01-11T12:00:58;45.45;;;18.98;;
8232;SDS011;4157;48.074;9.952;2024-01-11T12:03:26;55.50;;;18.58;;
8232;SDS011;4157;48.074;9.952;2024-01-11T12:05:55;48.20;;;19.17;;
8232;SDS011;4157;48.074;9.952;2024-01-11T12:08:24;50.47;;;19.10;;
8232;SDS011;4157;48.074;9.952;2024-01-11T12:10:52;54.28;;;20.05;;
8232;SDS011;4157;48.074;9.952;2024-01-11T12:13:19;54.30;;;18.92;;
8232;SDS011;4157;48.074;9.952;2024-01-11T12:15:47;54.85;;;21.98;;
8232;SDS011;4157;48.074;9.952;2024-01-11T12:18:16;60.90;;;20.85;;
8232;SDS011;4157;48.074;9.952;2024-01-11T12:20:45;54.08;;;18.65;;
8232;SDS011;4157;48.074;9.952;2024-01-11T12:23:12;50.35;;;19.40;;
8232;SDS011;4157;48.074;9.952;2024-01-11T12:25:40;55.00;;;19.27;;
8232;SDS011;4157;48.074;9.952;2024-01-11T12:28:08;44.88;;;18.42;;
8232;SDS011;4157;48.074;9.952;2024-01-11T12:30:36;50.80;;;19.48;;
8232;SDS011;4157;48.074;9.952;2024-01-11T12:33:05;64.40;;;20.33;;
8232;SDS011;4157;48.074;9.952;2024-01-11T12:35:34;66.97;;;24.20;;
8232;SDS011;4157;48.074;9.952;2024-01-11T12:38:03;73.57;;;26.98;;
8232;SDS011;4157;48.074;9.952;2024-01-11T12:40:31;77.72;;;26.20;;
8232;SDS011;4157;48.074;9.952;2024-01-11T12:43:00;60.67;;;22.55;;
8232;SDS011;4157;48.074;9.952;2024-01-11T12:45:28;71.90;;;25.45;;
8232;SDS011;4157;48.074;9.952;2024-01-11T12:47:58;69.60;;;23.48;;
8232;SDS011;4157;48.074;9.952;2024-01-11T12:50:25;64.15;;;23.52;;
8232;SDS011;4157;48.074;9.952;2024-01-11T12:53:11;74.72;;;26.20;;
8232;SDS011;4157;48.074;9.952;2024-01-11T12:55:43;59.20;;;23.25;;
8232;SDS011;4157;48.074;9.952;2024-01-11T12:58:11;72.32;;;27.35;;
8232;SDS011;4157;48.074;9.952;2024-01-11T13:00:39;69.80;;;24.75;;
8232;SDS011;4157;48.074;9.952;2024-01-11T13:03:07;73.55;;;26.52;;
8232;SDS011;4157;48.074;9.952;2024-01-11T13:05:35;80.18;;;25.67;;
8232;SDS011;4157;48.074;9.952;2024-01-11T13:08:03;55.05;;;21.77;;
8232;SDS011;4157;48.074;9.952;2024-01-11T13:10:36;56.03;;;19.65;;
8232;SDS011;4157;48.074;9.952;2024-01-11T13:13:04;53.80;;;20.98;;
8232;SDS011;4157;48.074;9.952;2024-01-11T13:15:33;48.15;;;19.58;;
8232;SDS011;4157;48.074;9.952;2024-01-11T13:18:02;58.65;;;21.73;;
8232;SDS011;4157;48.074;9.952;2024-01-11T13:20:30;63.13;;;22.60;;
8232;SDS011;4157;48.074;9.952;2024-01-11T13:23:13;68.78;;;24.83;;
8232;SDS011;4157;48.074;9.952;2024-01-11T13:25:43;59.33;;;22.67;;
8232;SDS011;4157;48.074;9.952;2024-01-11T13:28:11;67.50;;;23.02;;
8232;SDS011;4157;48.074;9.952;2024-01-11T13:30:39;62.83;;;23.80;;
8232;SDS011;4157;48.074;9.952;2024-01-11T13:33:07;58.08;;;22.65;;
8232;SDS011;4157;48.074;9.952;2024-01-11T13:35:34;61.35;;;20.98;;
8232;SDS011;4157;48.074;9.952;2024-01-11T13:38:04;65.35;;;24.45;;
8232;SDS011;4157;48.074;9.952;2024-01-11T13:40:32;52.75;;;23.77;;
8232;SDS011;4157;48.074;9.952;2024-01-11T13:43:01;63.75;;;24.15;;
8232;SDS011;4157;48.074;9.952;2024-01-11T13:45:29;59.97;;;22.58;;
8232;SDS011;4157;48.074;9.952;2024-01-11T13:47:56;52.15;;;21.75;;
8232;SDS011;4157;48.074;9.952;2024-01-11T13:50:24;61.58;;;23.00;;
8232;SDS011;4157;48.074;9.952;2024-01-11T13:52:52;59.72;;;22.38;;
8232;SDS011;4157;48.074;9.952;2024-01-11T13:55:20;55.22;;;21.50;;
8232;SDS011;4157;48.074;9.952;2024-01-11T13:57:48;51.33;;;21.48;;
8232;SDS011;4157;48.074;9.952;2024-01-11T14:00:18;58.97;;;24.42;;
8232;SDS011;4157;48.074;9.952;2024-01-11T14:02:46;61.65;;;23.80;;
8232;SDS011;4157;48.074;9.952;2024-01-11T14:05:14;56.03;;;22.25;;
8232;SDS011;4157;48.074;9.952;2024-01-11T14:07:43;56.70;;;22.63;;
8232;SDS011;4157;48.074;9.952;2024-01-11T14:10:11;53.53;;;20.50;;
8232;SDS011;4157;48.074;9.952;2024-01-11T14:12:39;60.53;;;22.88;;
8232;SDS011;4157;48.074;9.952;2024-01-11T14:15:08;59.38;;;21.73;;
8232;SDS011;4157;48.074;9.952;2024-01-11T14:17:39;65.13;;;24.67;;
8232;SDS011;4157;48.074;9.952;2024-01-11T14:20:07;58.78;;;23.95;;
8232;SDS011;4157;48.074;9.952;2024-01-11T14:22:38;58.92;;;23.85;;
8232;SDS011;4157;48.074;9.952;2024-01-11T14:25:06;65.70;;;24.10;;
8232;SDS011;4157;48.074;9.952;2024-01-11T14:27:34;65.18;;;23.10;;
8232;SDS011;4157;48.074;9.952;2024-01-11T14:30:02;68.20;;;24.60;;
8232;SDS011;4157;48.074;9.952;2024-01-11T14:32:31;67.07;;;25.63;;
8232;SDS011;4157;48.074;9.952;2024-01-11T14:35:00;74.20;;;25.42;;
8232;SDS011;4157;48.074;9.952;2024-01-11T14:37:30;70.60;;;24.75;;
8232;SDS011;4157;48.074;9.952;2024-01-11T14:39:58;61.20;;;23.77;;
8232;SDS011;4157;48.074;9.952;2024-01-11T14:42:25;59.63;;;22.65;;
8232;SDS011;4157;48.074;9.952;2024-01-11T14:44:53;65.10;;;24.95;;
8232;SDS011;4157;48.074;9.952;2024-01-11T14:47:21;55.03;;;21.15;;
8232;SDS011;4157;48.074;9.952;2024-01-11T14:49:49;58.65;;;23.70;;
8232;SDS011;4157;48.074;9.952;2024-01-11T14:52:18;67.03;;;25.67;;
8232;SDS011;4157;48.074;9.952;2024-01-11T14:54:46;64.75;;;23.30;;
8232;SDS011;4157;48.074;9.952;2024-01-11T14:57:14;71.40;;;25.55;;